sensor_id;sensor_type;location;lat;lon;timestamp;P1;durP1;ratioP1;P2;durP2;ratioP2
19161;SDS011;9713;48.140;11.530;2023-08-08T00:01:49;1.73;;;1.00;;
19161;SDS011;9713;48.140;11.530;2023-08-08T00:05:32;1.10;;;0.90;;
19161;SDS011;9713;48.140;11.530;2023-08-08T00:09:15;1.17;;;0.80;;
19161;SDS011;9713;48.140;11.530;2023-08-08T00:12:59;1.53;;;0.83;;
19161;SDS011;9713;48.140;11.530;2023-08-08T00:16:42;1.27;;;0.87;;
19161;SDS011;9713;48.140;11.530;2023-08-08T00:20:25;1.60;;;0.90;;
19161;SDS011;9713;48.140;11.530;2023-08-08T00:24:08;1.70;;;1.10;;
19161;SDS011;9713;48.140;11.530;2023-08-08T00:27:50;1.27;;;0.83;;
19161;SDS011;9713;48.140;11.530;2023-08-08T00:31:34;1.97;;;1.10;;
19161;SDS011;9713;48.140;11.530;2023-08-08T00:35:17;1.60;;;1.03;;
19161;SDS011;9713;48.140;11.530;2023-08-08T00:39:00;3.07;;;0.83;;
19161;SDS011;9713;48.140;11.530;2023-08-08T00:42:43;0.90;;;0.80;;
19161;SDS011;9713;48.140;11.530;2023-08-08T00:46:26;1.90;;;0.90;;
19161;SDS011;9713;48.140;11.530;2023-08-08T00:50:10;3.53;;;1.10;;
19161;SDS011;9713;48.140;11.530;2023-08-08T00:53:54;1.60;;;0.97;;
19161;SDS011;9713;48.140;11.530;2023-08-08T00:57:36;1.03;;;0.73;;
19161;SDS011;9713;48.140;11.530;2023-08-08T01:01:20;1.00;;;0.90;;
19161;SDS011;9713;48.140;11.530;2023-08-08T01:05:03;2.10;;;1.13;;
19161;SDS011;9713;48.140;11.530;2023-08-08T01:08:49;2.70;;;0.90;;
19161;SDS011;9713;48.140;11.530;2023-08-08T01:12:35;1.63;;;1.00;;
19161;SDS011;9713;48.140;11.530;2023-08-08T01:16:20;1.83;;;0.90;;
19161;SDS011;9713;48.140;11.530;2023-08-08T01:20:04;2.23;;;1.10;;
19161;SDS011;9713;48.140;11.530;2023-08-08T01:23:52;1.43;;;0.90;;
19161;SDS011;9713;48.140;11.530;2023-08-08T01:27:37;0.70;;;0.70;;
19161;SDS011;9713;48.140;11.530;2023-08-08T01:31:20;1.47;;;1.00;;
19161;SDS011;9713;48.140;11.530;2023-08-08T01:35:05;1.07;;;0.93;;
19161;SDS011;9713;48.140;11.530;2023-08-08T01:38:49;1.63;;;1.00;;
19161;SDS011;9713;48.140;11.530;2023-08-08T01:42:34;1.27;;;0.90;;
19161;SDS011;9713;48.140;11.530;2023-08-08T01:46:18;2.53;;;0.97;;
19161;SDS011;9713;48.140;11.530;2023-08-08T01:50:01;1.13;;;0.87;;
19161;SDS011;9713;48.140;11.530;2023-08-08T01:53:44;1.10;;;0.90;;
19161;SDS011;9713;48.140;11.530;2023-08-08T01:57:27;2.80;;;1.00;;
19161;SDS011;9713;48.140;11.530;2023-08-08T02:01:10;1.03;;;0.83;;
19161;SDS011;9713;48.140;11.530;2023-08-08T02:04:54;1.20;;;1.00;;
19161;SDS011;9713;48.140;11.530;2023-08-08T02:08:37;1.00;;;0.83;;
19161;SDS011;9713;48.140;11.530;2023-08-08T02:12:21;1.80;;;1.00;;
19161;SDS011;9713;48.140;11.530;2023-08-08T02:16:03;1.23;;;0.90;;
19161;SDS011;9713;48.140;11.530;2023-08-08T02:19:47;1.67;;;1.10;;
19161;SDS011;9713;48.140;11.530;2023-08-08T02:23:31;3.40;;;1.00;;
19161;SDS011;9713;48.140;11.530;2023-08-08T02:27:14;2.60;;;0.70;;
19161;SDS011;9713;48.140;11.530;2023-08-08T02:30:57;1.53;;;0.90;;
19161;SDS011;9713;48.140;11.530;2023-08-08T02:34:40;1.77;;;0.80;;
19161;SDS011;9713;48.140;11.530;2023-08-08T02:38:23;1.60;;;1.07;;
19161;SDS011;9713;48.140;11.530;2023-08-08T02:42:07;2.13;;;1.00;;
19161;SDS011;9713;48.140;11.530;2023-08-08T02:45:50;0.90;;;0.80;;
19161;SDS011;9713;48.140;11.530;2023-08-08T02:49:33;1.77;;;0.90;;
19161;SDS011;9713;48.140;11.530;2023-08-08T02:53:16;1.40;;;0.90;;
19161;SDS011;9713;48.140;11.530;2023-08-08T02:56:59;1.27;;;0.80;;
19161;SDS011;9713;48.140;11.530;2023-08-08T03:00:44;1.67;;;1.00;;
19161;SDS011;9713;48.140;11.530;2023-08-08T03:04:26;1.90;;;1.07;;
19161;SDS011;9713;48.140;11.530;2023-08-08T03:08:09;3.93;;;1.17;;
19161;SDS011;9713;48.140;11.530;2023-08-08T03:11:52;1.77;;;0.90;;
19161;SDS011;9713;48.140;11.530;2023-08-08T03:15:35;2.13;;;1.03;;
19161;SDS011;9713;48.140;11.530;2023-08-08T03:19:19;1.87;;;1.00;;
19161;SDS011;9713;48.140;11.530;2023-08-08T03:23:02;1.27;;;0.80;;
19161;SDS011;9713;48.140;11.530;2023-08-08T03:26:48;2.73;;;1.03;;
19161;SDS011;9713;48.140;11.530;2023-08-08T03:30:31;2.03;;;1.17;;
19161;SDS011;9713;48.140;11.530;2023-08-08T03:34:14;1.37;;;1.00;;
19161;SDS011;9713;48.140;11.530;2023-08-08T03:37:58;1.70;;;1.10;;
19161;SDS011;9713;48.140;11.530;2023-08-08T03:41:41;1.73;;;0.93;;
19161;SDS011;9713;48.140;11.530;2023-08-08T03:45:24;3.63;;;0.97;;
19161;SDS011;9713;48.140;11.530;2023-08-08T03:49:07;2.30;;;0.97;;
19161;SDS011;9713;48.140;11.530;2023-08-08T03:52:50;3.20;;;1.10;;
19161;SDS011;9713;48.140;11.530;2023-08-08T03:56:34;2.07;;;1.00;;
19161;SDS011;9713;48.140;11.530;2023-08-08T04:00:16;3.20;;;1.23;;
19161;SDS011;9713;48.140;11.530;2023-08-08T04:03:59;1.97;;;0.93;;
19161;SDS011;9713;48.140;11.530;2023-08-08T04:07:42;1.60;;;1.10;;
19161;SDS011;9713;48.140;11.530;2023-08-08T04:11:25;1.60;;;1.10;;
19161;SDS011;9713;48.140;11.530;2023-08-08T04:15:09;2.37;;;1.20;;
19161;SDS011;9713;48.140;11.530;2023-08-08T04:18:52;1.50;;;1.13;;
19161;SDS011;9713;48.140;11.530;2023-08-08T04:22:35;1.53;;;1.00;;
19161;SDS011;9713;48.140;11.530;2023-08-08T04:26:18;1.90;;;1.13;;
19161;SDS011;9713;48.140;11.530;2023-08-08T04:30:01;1.93;;;1.10;;
19161;SDS011;9713;48.140;11.530;2023-08-08T04:33:47;2.10;;;1.20;;
19161;SDS011;9713;48.140;11.530;2023-08-08T04:37:29;1.30;;;0.97;;
19161;SDS011;9713;48.140;11.530;2023-08-08T04:41:12;2.37;;;1.20;;
19161;SDS011;9713;48.140;11.530;2023-08-08T04:44:55;2.50;;;1.23;;
19161;SDS011;9713;48.140;11.530;2023-08-08T04:48:38;1.97;;;1.23;;
19161;SDS011;9713;48.140;11.530;2023-08-08T04:52:22;4.87;;;1.40;;
19161;SDS011;9713;48.140;11.530;2023-08-08T04:56:05;1.53;;;1.20;;
19161;SDS011;9713;48.140;11.530;2023-08-08T04:59:48;2.00;;;1.10;;
19161;SDS011;9713;48.140;11.530;2023-08-08T05:03:30;2.77;;;1.30;;
19161;SDS011;9713;48.140;11.530;2023-08-08T05:07:13;2.87;;;1.37;;
19161;SDS011;9713;48.140;11.530;2023-08-08T05:10:58;2.50;;;1.20;;
19161;SDS011;9713;48.140;11.530;2023-08-08T05:14:40;1.17;;;1.00;;
19161;SDS011;9713;48.140;11.530;2023-08-08T05:18:23;1.67;;;1.13;;
19161;SDS011;9713;48.140;11.530;2023-08-08T05:22:06;1.87;;;1.10;;
19161;SDS011;9713;48.140;11.530;2023-08-08T05:25:49;1.50;;;0.90;;
19161;SDS011;9713;48.140;11.530;2023-08-08T05:29:33;1.60;;;1.00;;
19161;SDS011;9713;48.140;11.530;2023-08-08T05:33:19;1.60;;;1.00;;
19161;SDS011;9713;48.140;11.530;2023-08-08T05:37:02;1.53;;;0.90;;
19161;SDS011;9713;48.140;11.530;2023-08-08T05:40:58;2.60;;;0.93;;
19161;SDS011;9713;48.140;11.530;2023-08-08T05:44:42;2.60;;;1.17;;
19161;SDS011;9713;48.140;11.530;2023-08-08T05:48:24;2.27;;;1.13;;
19161;SDS011;9713;48.140;11.530;2023-08-08T05:52:07;2.10;;;1.10;;
19161;SDS011;9713;48.140;11.530;2023-08-08T05:55:51;3.47;;;1.10;;
19161;SDS011;9713;48.140;11.530;2023-08-08T05:59:33;3.10;;;1.30;;
19161;SDS011;9713;48.140;11.530;2023-08-08T06:03:18;1.70;;;1.10;;
19161;SDS011;9713;48.140;11.530;2023-08-08T06:07:00;3.63;;;1.33;;
19161;SDS011;9713;48.140;11.530;2023-08-08T06:10:43;2.20;;;1.20;;
19161;SDS011;9713;48.140;11.530;2023-08-08T06:14:26;1.60;;;1.00;;
19161;SDS011;9713;48.140;11.530;2023-08-08T06:18:09;4.60;;;1.30;;
19161;SDS011;9713;48.140;11.530;2023-08-08T06:21:53;1.53;;;0.93;;
19161;SDS011;9713;48.140;11.530;2023-08-08T06:25:36;1.43;;;1.00;;
19161;SDS011;9713;48.140;11.530;2023-08-08T06:29:20;3.60;;;0.97;;
19161;SDS011;9713;48.140;11.530;2023-08-08T06:33:03;5.17;;;1.10;;
19161;SDS011;9713;48.140;11.530;2023-08-08T06:36:46;1.23;;;1.00;;
19161;SDS011;9713;48.140;11.530;2023-08-08T06:40:30;1.13;;;0.90;;
19161;SDS011;9713;48.140;11.530;2023-08-08T06:44:13;1.60;;;1.00;;
19161;SDS011;9713;48.140;11.530;2023-08-08T06:47:56;2.53;;;1.00;;
19161;SDS011;9713;48.140;11.530;2023-08-08T06:51:39;2.07;;;1.10;;
19161;SDS011;9713;48.140;11.530;2023-08-08T06:55:22;2.17;;;1.10;;
19161;SDS011;9713;48.140;11.530;2023-08-08T06:59:07;1.63;;;1.10;;
19161;SDS011;9713;48.140;11.530;2023-08-08T07:02:49;3.20;;;1.20;;
19161;SDS011;9713;48.140;11.530;2023-08-08T07:06:32;2.13;;;1.17;;
19161;SDS011;9713;48.140;11.530;2023-08-08T07:10:15;3.57;;;1.23;;
19161;SDS011;9713;48.140;11.530;2023-08-08T07:13:58;1.47;;;1.10;;
19161;SDS011;9713;48.140;11.530;2023-08-08T07:17:42;2.67;;;1.10;;
19161;SDS011;9713;48.140;11.530;2023-08-08T07:21:26;1.20;;;1.00;;
19161;SDS011;9713;48.140;11.530;2023-08-08T07:25:09;3.07;;;1.30;;
19161;SDS011;9713;48.140;11.530;2023-08-08T07:28:52;2.17;;;1.00;;
19161;SDS011;9713;48.140;11.530;2023-08-08T07:32:35;1.30;;;1.03;;
19161;SDS011;9713;48.140;11.530;2023-08-08T07:36:20;1.60;;;1.17;;
19161;SDS011;9713;48.140;11.530;2023-08-08T07:40:03;2.83;;;1.27;;
19161;SDS011;9713;48.140;11.530;2023-08-08T07:43:46;2.07;;;1.10;;
19161;SDS011;9713;48.140;11.530;2023-08-08T07:47:29;2.03;;;1.10;;
19161;SDS011;9713;48.140;11.530;2023-08-08T07:51:12;1.27;;;0.97;;
19161;SDS011;9713;48.140;11.530;2023-08-08T07:54:56;3.27;;;1.03;;
19161;SDS011;9713;48.140;11.530;2023-08-08T07:58:41;1.80;;;1.00;;
19161;SDS011;9713;48.140;11.530;2023-08-08T08:02:27;2.43;;;1.30;;
19161;SDS011;9713;48.140;11.530;2023-08-08T08:06:13;2.17;;;1.10;;
19161;SDS011;9713;48.140;11.530;2023-08-08T08:10:01;2.27;;;1.17;;
19161;SDS011;9713;48.140;11.530;2023-08-08T08:13:45;3.33;;;1.17;;
19161;SDS011;9713;48.140;11.530;2023-08-08T08:17:28;3.17;;;1.30;;
19161;SDS011;9713;48.140;11.530;2023-08-08T08:21:11;1.43;;;1.13;;
19161;SDS011;9713;48.140;11.530;2023-08-08T08:24:54;2.00;;;1.13;;
19161;SDS011;9713;48.140;11.530;2023-08-08T08:28:38;3.33;;;1.03;;
19161;SDS011;9713;48.140;11.530;2023-08-08T08:32:22;2.70;;;1.50;;
19161;SDS011;9713;48.140;11.530;2023-08-08T08:36:05;5.10;;;1.13;;
19161;SDS011;9713;48.140;11.530;2023-08-08T08:39:48;2.27;;;1.30;;
19161;SDS011;9713;48.140;11.530;2023-08-08T08:43:31;3.70;;;1.30;;
19161;SDS011;9713;48.140;11.530;2023-08-08T08:47:16;2.17;;;1.30;;
19161;SDS011;9713;48.140;11.530;2023-08-08T08:51:00;2.60;;;1.20;;
19161;SDS011;9713;48.140;11.530;2023-08-08T08:54:46;3.40;;;1.50;;
19161;SDS011;9713;48.140;11.530;2023-08-08T08:58:34;6.87;;;1.13;;
19161;SDS011;9713;48.140;11.530;2023-08-08T09:02:18;4.97;;;1.23;;
19161;SDS011;9713;48.140;11.530;2023-08-08T09:06:07;2.10;;;1.10;;
19161;SDS011;9713;48.140;11.530;2023-08-08T09:09:50;2.30;;;1.47;;
19161;SDS011;9713;48.140;11.530;2023-08-08T09:13:35;3.20;;;1.50;;
19161;SDS011;9713;48.140;11.530;2023-08-08T09:17:21;2.53;;;1.13;;
19161;SDS011;9713;48.140;11.530;2023-08-08T09:21:14;1.53;;;1.00;;
19161;SDS011;9713;48.140;11.530;2023-08-08T09:24:57;1.87;;;1.17;;
19161;SDS011;9713;48.140;11.530;2023-08-08T09:28:40;1.67;;;1.03;;
19161;SDS011;9713;48.140;11.530;2023-08-08T09:32:29;3.63;;;1.23;;
19161;SDS011;9713;48.140;11.530;2023-08-08T09:36:13;2.47;;;1.20;;
19161;SDS011;9713;48.140;11.530;2023-08-08T09:39:56;1.63;;;1.20;;
19161;SDS011;9713;48.140;11.530;2023-08-08T09:43:39;4.20;;;1.30;;
19161;SDS011;9713;48.140;11.530;2023-08-08T09:47:22;4.07;;;1.10;;
19161;SDS011;9713;48.140;11.530;2023-08-08T09:51:07;2.63;;;1.23;;
19161;SDS011;9713;48.140;11.530;2023-08-08T09:54:50;2.30;;;1.30;;
19161;SDS011;9713;48.140;11.530;2023-08-08T09:58:34;2.13;;;1.17;;
19161;SDS011;9713;48.140;11.530;2023-08-08T10:02:17;3.53;;;2.20;;
19161;SDS011;9713;48.140;11.530;2023-08-08T10:06:00;2.57;;;1.20;;
19161;SDS011;9713;48.140;11.530;2023-08-08T10:09:45;6.77;;;1.60;;
19161;SDS011;9713;48.140;11.530;2023-08-08T10:13:28;3.38;;;1.40;;
19161;SDS011;9713;48.140;11.530;2023-08-08T10:17:12;2.05;;;1.10;;
19161;SDS011;9713;48.140;11.530;2023-08-08T10:20:56;1.97;;;1.00;;
19161;SDS011;9713;48.140;11.530;2023-08-08T10:24:39;1.63;;;1.00;;
19161;SDS011;9713;48.140;11.530;2023-08-08T10:28:23;2.43;;;1.50;;
19161;SDS011;9713;48.140;11.530;2023-08-08T10:32:08;2.73;;;1.20;;
19161;SDS011;9713;48.140;11.530;2023-08-08T10:35:54;3.40;;;1.10;;
19161;SDS011;9713;48.140;11.530;2023-08-08T10:39:48;1.50;;;1.10;;
19161;SDS011;9713;48.140;11.530;2023-08-08T10:43:35;1.88;;;1.00;;
19161;SDS011;9713;48.140;11.530;2023-08-08T10:47:20;1.50;;;0.93;;
19161;SDS011;9713;48.140;11.530;2023-08-08T10:51:05;1.98;;;1.00;;
19161;SDS011;9713;48.140;11.530;2023-08-08T10:54:51;2.87;;;0.80;;
19161;SDS011;9713;48.140;11.530;2023-08-08T10:58:36;3.20;;;1.80;;
19161;SDS011;9713;48.140;11.530;2023-08-08T11:02:19;3.33;;;1.10;;
19161;SDS011;9713;48.140;11.530;2023-08-08T11:06:03;1.42;;;1.00;;
19161;SDS011;9713;48.140;11.530;2023-08-08T11:09:46;1.30;;;1.10;;
19161;SDS011;9713;48.140;11.530;2023-08-08T11:13:29;1.70;;;0.88;;
19161;SDS011;9713;48.140;11.530;2023-08-08T11:17:13;2.47;;;1.05;;
19161;SDS011;9713;48.140;11.530;2023-08-08T11:20:56;3.03;;;1.20;;
19161;SDS011;9713;48.140;11.530;2023-08-08T11:24:58;1.17;;;0.90;;
19161;SDS011;9713;48.140;11.530;2023-08-08T11:28:48;1.52;;;0.95;;
19161;SDS011;9713;48.140;11.530;2023-08-08T11:32:33;2.00;;;0.90;;
19161;SDS011;9713;48.140;11.530;2023-08-08T11:36:16;2.30;;;0.93;;
19161;SDS011;9713;48.140;11.530;2023-08-08T11:39:59;2.65;;;0.90;;
19161;SDS011;9713;48.140;11.530;2023-08-08T11:43:43;2.45;;;1.20;;
19161;SDS011;9713;48.140;11.530;2023-08-08T11:47:26;1.30;;;0.98;;
19161;SDS011;9713;48.140;11.530;2023-08-08T11:51:11;1.10;;;0.90;;
19161;SDS011;9713;48.140;11.530;2023-08-08T11:54:58;1.23;;;0.82;;
19161;SDS011;9713;48.140;11.530;2023-08-08T11:58:41;1.20;;;1.00;;
19161;SDS011;9713;48.140;11.530;2023-08-08T12:02:25;1.23;;;1.00;;
19161;SDS011;9713;48.140;11.530;2023-08-08T12:06:13;1.00;;;0.90;;
19161;SDS011;9713;48.140;11.530;2023-08-08T12:09:56;3.00;;;1.35;;
19161;SDS011;9713;48.140;11.530;2023-08-08T12:13:40;2.78;;;1.05;;
19161;SDS011;9713;48.140;11.530;2023-08-08T12:17:23;3.22;;;1.10;;
19161;SDS011;9713;48.140;11.530;2023-08-08T12:21:06;2.50;;;0.93;;
19161;SDS011;9713;48.140;11.530;2023-08-08T12:24:51;3.95;;;1.15;;
19161;SDS011;9713;48.140;11.530;2023-08-08T12:28:34;1.98;;;1.40;;
19161;SDS011;9713;48.140;11.530;2023-08-08T12:32:17;1.52;;;0.88;;
19161;SDS011;9713;48.140;11.530;2023-08-08T12:36:01;2.35;;;1.05;;
19161;SDS011;9713;48.140;11.530;2023-08-08T12:39:45;2.85;;;0.80;;
19161;SDS011;9713;48.140;11.530;2023-08-08T12:43:30;3.67;;;1.20;;
19161;SDS011;9713;48.140;11.530;2023-08-08T12:47:15;2.08;;;1.10;;
19161;SDS011;9713;48.140;11.530;2023-08-08T12:51:00;2.80;;;1.50;;
19161;SDS011;9713;48.140;11.530;2023-08-08T12:54:43;2.20;;;1.48;;
19161;SDS011;9713;48.140;11.530;2023-08-08T12:58:27;2.55;;;1.40;;
19161;SDS011;9713;48.140;11.530;2023-08-08T13:02:11;5.35;;;1.20;;
19161;SDS011;9713;48.140;11.530;2023-08-08T13:05:54;2.20;;;1.17;;
19161;SDS011;9713;48.140;11.530;2023-08-08T13:09:38;2.38;;;1.00;;
19161;SDS011;9713;48.140;11.530;2023-08-08T13:13:21;1.60;;;1.10;;
19161;SDS011;9713;48.140;11.530;2023-08-08T13:17:07;1.23;;;0.93;;
19161;SDS011;9713;48.140;11.530;2023-08-08T13:20:52;4.95;;;1.00;;
19161;SDS011;9713;48.140;11.530;2023-08-08T13:24:35;2.47;;;0.90;;
19161;SDS011;9713;48.140;11.530;2023-08-08T13:28:18;1.30;;;1.00;;
19161;SDS011;9713;48.140;11.530;2023-08-08T13:32:01;3.25;;;1.15;;
19161;SDS011;9713;48.140;11.530;2023-08-08T13:35:44;3.10;;;1.05;;
19161;SDS011;9713;48.140;11.530;2023-08-08T13:39:28;1.50;;;1.08;;
19161;SDS011;9713;48.140;11.530;2023-08-08T13:43:11;2.78;;;1.10;;
19161;SDS011;9713;48.140;11.530;2023-08-08T13:46:54;2.50;;;1.17;;
19161;SDS011;9713;48.140;11.530;2023-08-08T13:50:39;2.60;;;1.40;;
19161;SDS011;9713;48.140;11.530;2023-08-08T13:54:22;1.35;;;1.08;;
19161;SDS011;9713;48.140;11.530;2023-08-08T13:58:08;3.70;;;2.92;;
19161;SDS011;9713;48.140;11.530;2023-08-08T14:01:51;2.28;;;1.50;;
19161;SDS011;9713;48.140;11.530;2023-08-08T14:05:36;2.15;;;1.50;;
19161;SDS011;9713;48.140;11.530;2023-08-08T14:09:21;2.38;;;1.52;;
19161;SDS011;9713;48.140;11.530;2023-08-08T14:13:05;3.35;;;1.25;;
19161;SDS011;9713;48.140;11.530;2023-08-08T14:16:50;2.35;;;1.23;;
19161;SDS011;9713;48.140;11.530;2023-08-08T14:20:35;1.58;;;1.17;;
19161;SDS011;9713;48.140;11.530;2023-08-08T14:24:18;1.98;;;1.15;;
19161;SDS011;9713;48.140;11.530;2023-08-08T14:28:01;2.72;;;1.23;;
19161;SDS011;9713;48.140;11.530;2023-08-08T14:31:45;3.35;;;1.30;;
19161;SDS011;9713;48.140;11.530;2023-08-08T14:35:42;2.25;;;1.70;;
19161;SDS011;9713;48.140;11.530;2023-08-08T14:39:25;3.05;;;1.27;;
19161;SDS011;9713;48.140;11.530;2023-08-08T14:43:08;2.60;;;1.20;;
19161;SDS011;9713;48.140;11.530;2023-08-08T14:46:53;3.03;;;1.25;;
19161;SDS011;9713;48.140;11.530;2023-08-08T14:50:36;3.38;;;1.20;;
19161;SDS011;9713;48.140;11.530;2023-08-08T14:54:20;2.60;;;1.13;;
19161;SDS011;9713;48.140;11.530;2023-08-08T14:58:03;2.47;;;1.10;;
19161;SDS011;9713;48.140;11.530;2023-08-08T15:01:46;2.30;;;1.23;;
19161;SDS011;9713;48.140;11.530;2023-08-08T15:05:29;2.70;;;1.05;;
19161;SDS011;9713;48.140;11.530;2023-08-08T15:09:12;2.55;;;1.30;;
19161;SDS011;9713;48.140;11.530;2023-08-08T15:12:59;4.45;;;1.40;;
19161;SDS011;9713;48.140;11.530;2023-08-08T15:16:47;1.67;;;1.30;;
19161;SDS011;9713;48.140;11.530;2023-08-08T15:20:31;2.72;;;1.20;;
19161;SDS011;9713;48.140;11.530;2023-08-08T15:24:14;1.45;;;1.17;;
19161;SDS011;9713;48.140;11.530;2023-08-08T15:27:57;3.08;;;1.30;;
19161;SDS011;9713;48.140;11.530;2023-08-08T15:31:44;2.15;;;1.30;;
19161;SDS011;9713;48.140;11.530;2023-08-08T15:35:27;1.75;;;1.05;;
19161;SDS011;9713;48.140;11.530;2023-08-08T15:39:10;2.22;;;1.40;;
19161;SDS011;9713;48.140;11.530;2023-08-08T15:42:53;2.95;;;1.00;;
19161;SDS011;9713;48.140;11.530;2023-08-08T15:46:36;4.13;;;1.13;;
19161;SDS011;9713;48.140;11.530;2023-08-08T15:50:21;2.47;;;1.33;;
19161;SDS011;9713;48.140;11.530;2023-08-08T15:54:06;2.72;;;1.30;;
19161;SDS011;9713;48.140;11.530;2023-08-08T15:57:49;2.42;;;1.17;;
19161;SDS011;9713;48.140;11.530;2023-08-08T16:01:32;1.63;;;1.17;;
19161;SDS011;9713;48.140;11.530;2023-08-08T16:05:15;6.40;;;1.38;;
19161;SDS011;9713;48.140;11.530;2023-08-08T16:09:00;3.35;;;1.40;;
19161;SDS011;9713;48.140;11.530;2023-08-08T16:12:43;3.30;;;1.33;;
19161;SDS011;9713;48.140;11.530;2023-08-08T16:16:27;1.88;;;1.20;;
19161;SDS011;9713;48.140;11.530;2023-08-08T16:20:11;2.08;;;1.13;;
19161;SDS011;9713;48.140;11.530;2023-08-08T16:23:56;1.70;;;1.10;;
19161;SDS011;9713;48.140;11.530;2023-08-08T16:27:42;2.38;;;1.25;;
19161;SDS011;9713;48.140;11.530;2023-08-08T16:31:25;2.83;;;1.23;;
19161;SDS011;9713;48.140;11.530;2023-08-08T16:35:08;1.77;;;1.08;;
19161;SDS011;9713;48.140;11.530;2023-08-08T16:38:51;2.60;;;1.50;;
19161;SDS011;9713;48.140;11.530;2023-08-08T16:42:44;3.08;;;1.30;;
19161;SDS011;9713;48.140;11.530;2023-08-08T16:46:27;1.52;;;1.10;;
19161;SDS011;9713;48.140;11.530;2023-08-08T16:50:10;2.97;;;1.17;;
19161;SDS011;9713;48.140;11.530;2023-08-08T16:53:56;3.63;;;1.67;;
19161;SDS011;9713;48.140;11.530;2023-08-08T16:57:40;2.58;;;1.75;;
19161;SDS011;9713;48.140;11.530;2023-08-08T17:01:25;3.33;;;1.58;;
19161;SDS011;9713;48.140;11.530;2023-08-08T17:05:08;2.10;;;1.20;;
19161;SDS011;9713;48.140;11.530;2023-08-08T17:08:51;2.80;;;1.30;;
19161;SDS011;9713;48.140;11.530;2023-08-08T17:12:34;1.55;;;1.20;;
19161;SDS011;9713;48.140;11.530;2023-08-08T17:16:17;1.63;;;1.08;;
19161;SDS011;9713;48.140;11.530;2023-08-08T17:20:03;1.88;;;1.13;;
19161;SDS011;9713;48.140;11.530;2023-08-08T17:23:51;2.25;;;1.30;;
19161;SDS011;9713;48.140;11.530;2023-08-08T17:27:34;2.53;;;1.27;;
19161;SDS011;9713;48.140;11.530;2023-08-08T17:31:18;1.90;;;1.20;;
19161;SDS011;9713;48.140;11.530;2023-08-08T17:35:02;1.85;;;1.23;;
19161;SDS011;9713;48.140;11.530;2023-08-08T17:38:47;2.90;;;1.30;;
19161;SDS011;9713;48.140;11.530;2023-08-08T17:42:30;2.90;;;1.33;;
19161;SDS011;9713;48.140;11.530;2023-08-08T17:46:13;1.88;;;1.10;;
19161;SDS011;9713;48.140;11.530;2023-08-08T17:49:56;5.03;;;1.83;;
19161;SDS011;9713;48.140;11.530;2023-08-08T17:53:40;2.90;;;1.60;;
19161;SDS011;9713;48.140;11.530;2023-08-08T17:57:23;2.28;;;1.30;;
19161;SDS011;9713;48.140;11.530;2023-08-08T18:01:06;2.72;;;1.75;;
19161;SDS011;9713;48.140;11.530;2023-08-08T18:04:49;2.40;;;1.70;;
19161;SDS011;9713;48.140;11.530;2023-08-08T18:08:32;1.92;;;1.27;;
19161;SDS011;9713;48.140;11.530;2023-08-08T18:12:16;3.15;;;1.58;;
19161;SDS011;9713;48.140;11.530;2023-08-08T18:15:59;2.30;;;1.40;;
19161;SDS011;9713;48.140;11.530;2023-08-08T18:19:42;3.28;;;1.30;;
19161;SDS011;9713;48.140;11.530;2023-08-08T18:23:25;3.47;;;1.63;;
19161;SDS011;9713;48.140;11.530;2023-08-08T18:27:08;4.40;;;1.50;;
19161;SDS011;9713;48.140;11.530;2023-08-08T18:30:52;2.92;;;1.80;;
19161;SDS011;9713;48.140;11.530;2023-08-08T18:34:35;2.00;;;1.67;;
19161;SDS011;9713;48.140;11.530;2023-08-08T18:38:18;2.40;;;1.70;;
19161;SDS011;9713;48.140;11.530;2023-08-08T18:42:01;11.50;;;2.05;;
19161;SDS011;9713;48.140;11.530;2023-08-08T18:45:44;2.83;;;1.70;;
19161;SDS011;9713;48.140;11.530;2023-08-08T18:49:29;2.53;;;1.70;;
19161;SDS011;9713;48.140;11.530;2023-08-08T18:53:12;2.40;;;1.77;;
19161;SDS011;9713;48.140;11.530;2023-08-08T18:56:55;2.22;;;1.40;;
19161;SDS011;9713;48.140;11.530;2023-08-08T19:00:46;4.43;;;1.98;;
19161;SDS011;9713;48.140;11.530;2023-08-08T19:04:34;3.72;;;1.77;;
19161;SDS011;9713;48.140;11.530;2023-08-08T19:08:17;2.47;;;1.55;;
19161;SDS011;9713;48.140;11.530;2023-08-08T19:12:00;3.63;;;2.00;;
19161;SDS011;9713;48.140;11.530;2023-08-08T19:15:43;3.78;;;1.70;;
19161;SDS011;9713;48.140;11.530;2023-08-08T19:19:26;2.63;;;1.50;;
19161;SDS011;9713;48.140;11.530;2023-08-08T19:23:11;3.42;;;2.20;;
19161;SDS011;9713;48.140;11.530;2023-08-08T19:26:55;2.70;;;1.77;;
19161;SDS011;9713;48.140;11.530;2023-08-08T19:30:39;3.33;;;1.53;;
19161;SDS011;9713;48.140;11.530;2023-08-08T19:34:22;2.77;;;1.50;;
19161;SDS011;9713;48.140;11.530;2023-08-08T19:38:04;3.20;;;1.50;;
19161;SDS011;9713;48.140;11.530;2023-08-08T19:41:49;2.60;;;1.52;;
19161;SDS011;9713;48.140;11.530;2023-08-08T19:45:35;2.20;;;1.60;;
19161;SDS011;9713;48.140;11.530;2023-08-08T19:49:18;3.63;;;1.50;;
19161;SDS011;9713;48.140;11.530;2023-08-08T19:53:01;2.38;;;1.77;;
19161;SDS011;9713;48.140;11.530;2023-08-08T19:56:45;3.72;;;2.42;;
19161;SDS011;9713;48.140;11.530;2023-08-08T20:00:29;3.30;;;1.70;;
19161;SDS011;9713;48.140;11.530;2023-08-08T20:04:12;2.17;;;1.60;;
19161;SDS011;9713;48.140;11.530;2023-08-08T20:07:55;2.72;;;1.92;;
19161;SDS011;9713;48.140;11.530;2023-08-08T20:11:38;2.55;;;1.58;;
19161;SDS011;9713;48.140;11.530;2023-08-08T20:15:22;3.53;;;1.70;;
19161;SDS011;9713;48.140;11.530;2023-08-08T20:19:07;2.47;;;1.30;;
19161;SDS011;9713;48.140;11.530;2023-08-08T20:22:50;4.53;;;1.45;;
19161;SDS011;9713;48.140;11.530;2023-08-08T20:26:33;3.60;;;1.65;;
19161;SDS011;9713;48.140;11.530;2023-08-08T20:30:18;1.85;;;1.33;;
19161;SDS011;9713;48.140;11.530;2023-08-08T20:34:03;3.15;;;1.60;;
19161;SDS011;9713;48.140;11.530;2023-08-08T20:37:50;2.75;;;2.00;;
19161;SDS011;9713;48.140;11.530;2023-08-08T20:41:38;3.60;;;1.87;;
19161;SDS011;9713;48.140;11.530;2023-08-08T20:45:27;4.55;;;1.50;;
19161;SDS011;9713;48.140;11.530;2023-08-08T20:49:11;2.22;;;1.48;;
19161;SDS011;9713;48.140;11.530;2023-08-08T20:52:56;2.43;;;1.47;;
19161;SDS011;9713;48.140;11.530;2023-08-08T20:56:39;2.67;;;1.67;;
19161;SDS011;9713;48.140;11.530;2023-08-08T21:00:22;2.85;;;1.90;;
19161;SDS011;9713;48.140;11.530;2023-08-08T21:04:05;4.85;;;2.03;;
19161;SDS011;9713;48.140;11.530;2023-08-08T21:07:52;5.07;;;1.60;;
19161;SDS011;9713;48.140;11.530;2023-08-08T21:11:35;2.75;;;1.80;;
19161;SDS011;9713;48.140;11.530;2023-08-08T21:15:18;2.63;;;1.90;;
19161;SDS011;9713;48.140;11.530;2023-08-08T21:19:01;3.00;;;1.73;;
19161;SDS011;9713;48.140;11.530;2023-08-08T21:22:43;4.43;;;1.80;;
19161;SDS011;9713;48.140;11.530;2023-08-08T21:26:28;2.33;;;1.60;;
19161;SDS011;9713;48.140;11.530;2023-08-08T21:30:20;4.03;;;1.80;;
19161;SDS011;9713;48.140;11.530;2023-08-08T21:34:03;2.63;;;1.50;;
19161;SDS011;9713;48.140;11.530;2023-08-08T21:37:46;2.43;;;1.43;;
19161;SDS011;9713;48.140;11.530;2023-08-08T21:41:31;3.00;;;1.70;;
19161;SDS011;9713;48.140;11.530;2023-08-08T21:45:13;4.73;;;1.40;;
19161;SDS011;9713;48.140;11.530;2023-08-08T21:48:58;2.83;;;1.70;;
19161;SDS011;9713;48.140;11.530;2023-08-08T21:52:44;2.73;;;1.50;;
19161;SDS011;9713;48.140;11.530;2023-08-08T21:56:26;3.30;;;1.77;;
19161;SDS011;9713;48.140;11.530;2023-08-08T22:00:12;3.93;;;1.40;;
19161;SDS011;9713;48.140;11.530;2023-08-08T22:03:56;2.17;;;1.63;;
19161;SDS011;9713;48.140;11.530;2023-08-08T22:07:39;2.00;;;1.53;;
19161;SDS011;9713;48.140;11.530;2023-08-08T22:11:22;2.10;;;1.43;;
19161;SDS011;9713;48.140;11.530;2023-08-08T22:15:05;2.50;;;1.50;;
19161;SDS011;9713;48.140;11.530;2023-08-08T22:18:53;3.63;;;1.33;;
19161;SDS011;9713;48.140;11.530;2023-08-08T22:22:36;2.63;;;1.60;;
19161;SDS011;9713;48.140;11.530;2023-08-08T22:26:19;2.87;;;1.50;;
19161;SDS011;9713;48.140;11.530;2023-08-08T22:30:02;3.87;;;1.73;;